createdAt,value
2017-05-27T00:00:46.900Z,11
2017-05-27T00:10:46.955Z,11
2017-05-27T00:20:46.875Z,11
2017-05-27T00:30:46.929Z,12
2017-05-27T00:40:46.976Z,11
2017-05-27T00:50:46.882Z,12
2017-05-27T01:00:46.953Z,12
2017-05-27T01:10:46.900Z,12
2017-05-27T01:20:46.877Z,13
2017-05-27T01:30:46.971Z,11
2017-05-27T01:40:46.881Z,12
2017-05-27T01:50:46.969Z,12
2017-05-27T02:00:46.957Z,12
2017-05-27T02:10:46.909Z,11
2017-05-27T02:20:46.944Z,12
2017-05-27T02:30:46.896Z,10
2017-05-27T02:40:46.849Z,12
2017-05-27T02:50:46.918Z,13
2017-05-27T03:00:46.877Z,13
2017-05-27T03:10:46.958Z,11
2017-05-27T03:20:46.918Z,13
2017-05-27T03:30:46.846Z,13
2017-05-27T03:40:46.944Z,15
2017-05-27T03:50:46.909Z,12
2017-05-27T04:00:46.851Z,11
2017-05-27T04:10:46.995Z,12
2017-05-27T04:20:46.861Z,10
2017-05-27T04:30:46.960Z,11
2017-05-27T04:40:46.964Z,12
2017-05-27T04:50:46.846Z,11
2017-05-27T05:00:46.924Z,12
2017-05-27T05:10:46.905Z,10
2017-05-27T05:20:46.830Z,10
2017-05-27T05:30:46.896Z,10
2017-05-27T05:40:46.903Z,10
2017-05-27T05:50:46.941Z,8
2017-05-27T06:00:46.874Z,9
2017-05-27T06:10:46.867Z,8
2017-05-27T06:20:46.809Z,7
2017-05-27T06:30:46.889Z,7
2017-05-27T06:40:46.848Z,7
2017-05-27T06:50:46.918Z,6
2017-05-27T07:00:46.854Z,7
2017-05-27T07:10:46.846Z,6
2017-05-27T07:20:46.896Z,5
2017-05-27T07:30:46.890Z,5
2017-05-27T07:40:46.893Z,5
2017-05-27T07:50:46.860Z,4
2017-05-27T08:00:46.860Z,4
2017-05-27T08:10:46.890Z,4
2017-05-27T08:20:46.891Z,3
2017-05-27T08:30:46.905Z,3
2017-05-27T08:40:46.870Z,3
2017-05-27T08:50:46.902Z,3
2017-05-27T09:00:46.916Z,3
2017-05-27T09:10:46.882Z,4
2017-05-27T09:20:46.916Z,5
2017-05-27T09:30:46.883Z,5
2017-05-27T09:40:46.900Z,4
2017-05-27T09:50:46.930Z,4
2017-05-27T10:00:46.934Z,4
2017-05-27T10:10:46.921Z,4
2017-05-27T10:20:46.895Z,4
2017-05-27T10:30:46.900Z,4
2017-05-27T10:40:46.971Z,4
2017-05-27T10:50:46.919Z,3
2017-05-27T11:00:46.883Z,4
2017-05-27T11:10:46.976Z,4
2017-05-27T11:20:46.961Z,4
2017-05-27T11:30:46.940Z,4
2017-05-27T11:40:46.940Z,4
2017-05-27T11:50:46.939Z,4
2017-05-27T12:00:46.928Z,3
2017-05-27T12:10:46.916Z,3
2017-05-27T12:20:46.928Z,3
2017-05-27T12:30:46.964Z,3
2017-05-27T12:40:46.933Z,3
2017-05-27T12:50:46.929Z,4
2017-05-27T13:00:46.942Z,3
2017-05-27T13:10:46.961Z,3
2017-05-27T13:20:46.939Z,3
2017-05-27T13:30:46.936Z,3
2017-05-27T13:40:47.013Z,3
2017-05-27T13:50:46.962Z,3
2017-05-27T14:00:46.965Z,3
2017-05-27T14:10:46.974Z,4
2017-05-27T14:20:46.999Z,3
2017-05-27T14:30:46.964Z,3
2017-05-27T14:40:46.946Z,3
2017-05-27T14:50:46.959Z,3
2017-05-27T15:00:46.949Z,3
2017-05-27T15:10:46.985Z,4
2017-05-27T15:20:47.002Z,4
2017-05-27T15:30:46.991Z,3
2017-05-27T15:40:47.089Z,4
2017-05-27T15:50:46.988Z,3
2017-05-27T16:00:46.963Z,3
2017-05-27T16:10:46.988Z,3
2017-05-27T16:20:46.991Z,3
2017-05-27T16:30:46.976Z,3
2017-05-27T16:40:47.571Z,4
2017-05-27T16:50:47.017Z,4
2017-05-27T17:00:47.008Z,4
2017-05-27T17:10:47.059Z,4
2017-05-27T17:20:46.997Z,4
2017-05-27T17:30:47.008Z,5
2017-05-27T17:40:46.978Z,6
2017-05-27T17:50:47.008Z,4
2017-05-27T18:00:47.004Z,4
2017-05-27T18:10:47.020Z,4
2017-05-27T18:20:47.030Z,4
2017-05-27T18:30:47.005Z,4
2017-05-27T18:40:47.056Z,5
2017-05-27T18:50:47.078Z,5
2017-05-27T19:00:47.016Z,4
2017-05-27T19:10:47.030Z,4
2017-05-27T19:20:47.067Z,5
2017-05-27T19:30:47.019Z,5
2017-05-27T19:40:47.045Z,5
2017-05-27T19:50:47.032Z,4
2017-05-27T20:00:47.034Z,5
2017-05-27T20:10:47.049Z,6
2017-05-27T20:20:47.026Z,6
2017-05-27T20:30:47.032Z,4
2017-05-27T20:40:47.052Z,5
2017-05-27T20:50:47.112Z,4
2017-05-27T21:00:47.072Z,6
2017-05-27T21:10:47.051Z,5
2017-05-27T21:20:47.030Z,5
2017-05-27T21:30:47.033Z,5
2017-05-27T21:40:47.033Z,5
2017-05-27T21:50:47.039Z,4
2017-05-27T22:00:47.062Z,5
2017-05-27T22:10:47.051Z,5
2017-05-27T22:20:47.038Z,5
2017-05-27T22:30:48.027Z,5
2017-05-27T22:40:47.084Z,5
2017-05-27T22:50:47.412Z,5
2017-05-27T23:00:47.016Z,5
2017-05-27T23:10:47.055Z,5
2017-05-27T23:20:47.022Z,5
2017-05-27T23:30:47.082Z,6
2017-05-27T23:40:47.057Z,5
2017-05-27T23:50:47.023Z,7
